createdAt,value
2022-12-28T00:01:27.991Z,98341.47
2022-12-28T00:03:55.618Z,98349.25
2022-12-28T00:06:24.557Z,98353.09
2022-12-28T00:08:56.526Z,98353.28
2022-12-28T00:11:28.009Z,98361.47
2022-12-28T00:14:01.701Z,98371.50
2022-12-28T00:16:31.441Z,98371.50
2022-12-28T00:19:00.513Z,98370.91
2022-12-28T00:21:28.001Z,98372.13
2022-12-28T00:23:58.018Z,98373.72
2022-12-28T00:26:26.752Z,98381.69
2022-12-28T00:28:56.921Z,98377.75
2022-12-28T00:31:28.480Z,98393.88
2022-12-28T00:33:55.116Z,98390.34
2022-12-28T00:36:22.070Z,98396.06
2022-12-28T00:38:48.801Z,98380.19
2022-12-28T00:41:15.453Z,98402.53
2022-12-28T00:43:42.159Z,98409.09
2022-12-28T00:46:09.072Z,98404.53
2022-12-28T00:48:35.757Z,98411.28
2022-12-28T00:51:11.351Z,98412.69
2022-12-28T00:53:38.012Z,98416.28
2022-12-28T00:56:09.997Z,98420.91
2022-12-28T00:58:36.813Z,98421.69
2022-12-28T01:01:04.782Z,98400.81
2022-12-28T01:03:31.513Z,98416.22
2022-12-28T01:05:58.353Z,98413.94
2022-12-28T01:08:25.143Z,98413.13
2022-12-28T01:10:51.783Z,98408.38
2022-12-28T01:13:18.401Z,98414.28
2022-12-28T01:15:45.089Z,98401.88
2022-12-28T01:18:12.687Z,98409.88
2022-12-28T01:20:40.749Z,98409.25
2022-12-28T01:23:07.549Z,98419.06
2022-12-28T01:25:34.557Z,98421.44
2022-12-28T01:28:01.430Z,98415.88
2022-12-28T01:30:30.357Z,98427.72
2022-12-28T01:32:59.774Z,98424.44
2022-12-28T01:35:26.611Z,98418.81
2022-12-28T01:37:53.382Z,98435.06
2022-12-28T01:40:20.236Z,98433.41
2022-12-28T01:42:46.864Z,98435.81
2022-12-28T01:45:20.204Z,98434.75
2022-12-28T01:47:49.729Z,98434.34
2022-12-28T01:50:25.324Z,98412.09
2022-12-28T01:53:00.334Z,98426.94
2022-12-28T01:55:34.946Z,98427.66
2022-12-28T01:58:08.822Z,98432.91
2022-12-28T02:00:36.064Z,98431.44
2022-12-28T02:03:05.234Z,98426.50
2022-12-28T02:05:36.893Z,98431.00
2022-12-28T02:08:11.835Z,98428.53
2022-12-28T02:10:45.181Z,98415.13
2022-12-28T02:13:14.902Z,98410.38
2022-12-28T02:15:41.685Z,98417.97
2022-12-28T02:18:09.374Z,98427.16
2022-12-28T02:20:50.682Z,98422.81
2022-12-28T02:23:50.813Z,98419.72
2022-12-28T02:26:44.772Z,98414.03
2022-12-28T02:29:14.848Z,98420.38
2022-12-28T02:31:47.217Z,98421.75
2022-12-28T02:34:30.571Z,98418.44
2022-12-28T02:37:10.160Z,98410.34
2022-12-28T02:39:58.843Z,98412.94
2022-12-28T02:42:28.639Z,98423.13
2022-12-28T02:45:13.818Z,98422.81
2022-12-28T02:48:07.025Z,98431.16
2022-12-28T02:50:54.120Z,98427.66
2022-12-28T02:54:00.287Z,98431.53
2022-12-28T02:56:55.765Z,98429.22
2022-12-28T03:00:04.684Z,98429.31
2022-12-28T03:02:41.271Z,98429.38
2022-12-28T03:05:11.199Z,98432.56
2022-12-28T03:08:21.116Z,98432.09
2022-12-28T03:10:58.525Z,98422.66
2022-12-28T03:13:43.277Z,98424.69
2022-12-28T03:16:31.785Z,98435.47
2022-12-28T03:19:26.485Z,98433.81
2022-12-28T03:22:15.590Z,98431.50
2022-12-28T03:25:04.278Z,98444.31
2022-12-28T03:27:52.016Z,98433.31
2022-12-28T03:30:39.918Z,98442.00
2022-12-28T03:33:09.029Z,98437.03
2022-12-28T03:35:58.813Z,98438.47
2022-12-28T03:38:36.830Z,98442.16
2022-12-28T03:41:16.004Z,98438.97
2022-12-28T03:43:49.808Z,98450.44
2022-12-28T03:46:16.402Z,98453.09
2022-12-28T03:48:45.248Z,98453.44
2022-12-28T03:51:14.323Z,98456.56
2022-12-28T03:53:45.367Z,98455.53
2022-12-28T03:56:14.914Z,98456.72
2022-12-28T03:58:41.615Z,98453.59
2022-12-28T04:01:08.398Z,98450.00
2022-12-28T04:03:35.553Z,98471.22
2022-12-28T04:06:02.209Z,98473.78
2022-12-28T04:08:28.896Z,98475.56
2022-12-28T04:10:55.664Z,98463.84
2022-12-28T04:13:22.470Z,98487.72
2022-12-28T04:16:00.194Z,98473.69
2022-12-28T04:18:27.388Z,98476.56
2022-12-28T04:20:54.413Z,98470.09
2022-12-28T04:23:21.728Z,98481.09
2022-12-28T04:26:06.028Z,98475.41
2022-12-28T04:28:33.789Z,98483.03
2022-12-28T04:31:02.401Z,98482.88
2022-12-28T04:33:31.816Z,98480.03
2022-12-28T04:36:09.435Z,98459.38
2022-12-28T04:38:36.947Z,98481.66
2022-12-28T04:41:04.863Z,98481.84
2022-12-28T04:43:31.841Z,98487.81
2022-12-28T04:46:00.324Z,98464.31
2022-12-28T04:48:27.961Z,98475.59
2022-12-28T04:50:55.095Z,98482.38
2022-12-28T04:53:22.124Z,98489.19
2022-12-28T04:55:49.178Z,98485.44
2022-12-28T04:58:16.673Z,98490.41
2022-12-28T05:00:43.622Z,98501.00
2022-12-28T05:03:10.269Z,98489.09
2022-12-28T05:05:38.046Z,98495.56
2022-12-28T05:08:05.985Z,98502.19
2022-12-28T05:10:32.598Z,98485.84
2022-12-28T05:12:59.260Z,98503.53
2022-12-28T05:15:25.867Z,98511.69
2022-12-28T05:17:52.601Z,98507.06
2022-12-28T05:20:20.609Z,98515.81
2022-12-28T05:22:47.328Z,98511.38
2022-12-28T05:25:14.114Z,98486.25
2022-12-28T05:27:40.868Z,98502.78
2022-12-28T05:30:08.194Z,98510.75
2022-12-28T05:32:34.786Z,98512.72
2022-12-28T05:35:01.597Z,98514.34
2022-12-28T05:37:28.228Z,98507.09
2022-12-28T05:39:54.911Z,98513.06
2022-12-28T05:42:21.484Z,98507.25
2022-12-28T05:44:48.074Z,98502.13
2022-12-28T05:47:14.655Z,98507.09
2022-12-28T05:49:41.294Z,98510.09
2022-12-28T05:52:07.905Z,98509.25
2022-12-28T05:54:34.585Z,98507.59
2022-12-28T05:57:01.355Z,98499.16
2022-12-28T05:59:27.983Z,98510.41
2022-12-28T06:01:54.929Z,98510.41
2022-12-28T06:04:21.687Z,98507.09
2022-12-28T06:06:49.083Z,98510.41
2022-12-28T06:09:15.952Z,98510.94
2022-12-28T06:11:43.261Z,98516.38
2022-12-28T06:14:09.863Z,98508.81
2022-12-28T06:16:40.081Z,98506.97
2022-12-28T06:19:08.541Z,98525.50
2022-12-28T06:21:36.871Z,98522.22
2022-12-28T06:24:05.293Z,98522.38
2022-12-28T06:26:33.919Z,98521.38
2022-12-28T06:29:02.116Z,98524.69
2022-12-28T06:31:32.077Z,98527.34
2022-12-28T06:34:01.075Z,98527.03
2022-12-28T06:36:36.637Z,98532.16
2022-12-28T06:39:05.579Z,98523.56
2022-12-28T06:41:32.676Z,98530.81
2022-12-28T06:43:59.942Z,98527.66
2022-12-28T06:46:29.178Z,98531.16
2022-12-28T06:48:56.422Z,98530.50
2022-12-28T06:51:27.393Z,98521.72
2022-12-28T06:53:55.151Z,98531.50
2022-12-28T06:56:24.380Z,98527.19
2022-12-28T06:58:56.903Z,98527.03
2022-12-28T07:01:33.408Z,98527.19
2022-12-28T07:04:02.466Z,98532.47
2022-12-28T07:06:29.782Z,98530.66
2022-12-28T07:09:05.301Z,98529.69
2022-12-28T07:11:32.101Z,98529.69
2022-12-28T07:13:58.952Z,98532.97
2022-12-28T07:16:27.332Z,98534.66
2022-12-28T07:18:54.251Z,98527.16
2022-12-28T07:21:24.211Z,98540.41
2022-12-28T07:23:52.586Z,98537.75
2022-12-28T07:26:23.464Z,98536.59
2022-12-28T07:28:52.680Z,98529.34
2022-12-28T07:31:24.686Z,98524.03
2022-12-28T07:33:53.253Z,98522.72
2022-12-28T07:36:21.978Z,98529.66
2022-12-28T07:38:49.345Z,98520.56
2022-12-28T07:41:18.588Z,98507.94
2022-12-28T07:43:45.248Z,98497.00
2022-12-28T07:46:18.347Z,98509.09
2022-12-28T07:48:45.618Z,98511.25
2022-12-28T07:51:18.376Z,98511.72
2022-12-28T07:53:47.331Z,98511.59
2022-12-28T07:56:14.945Z,98502.44
2022-12-28T08:01:09.245Z,98510.38
2022-12-28T08:03:37.270Z,98497.44
2022-12-28T08:06:15.244Z,98500.41
2022-12-28T08:08:44.266Z,98500.75
2022-12-28T08:11:14.348Z,98505.69
2022-12-28T08:13:43.738Z,98508.31
2022-12-28T08:16:12.859Z,98508.44
2022-12-28T08:18:40.705Z,98510.41
2022-12-28T08:21:11.313Z,98509.72
2022-12-28T08:23:38.132Z,98519.47
2022-12-28T08:26:25.276Z,98512.47
2022-12-28T08:28:54.718Z,98507.13
2022-12-28T08:31:24.432Z,98514.88
2022-12-28T08:33:51.503Z,98515.00
2022-12-28T08:36:18.264Z,98513.94
2022-12-28T08:38:45.913Z,98524.50
2022-12-28T08:41:15.608Z,98514.84
2022-12-28T08:43:42.672Z,98509.31
2022-12-28T08:46:18.824Z,98503.09
2022-12-28T08:48:47.255Z,98500.19
2022-12-28T08:51:18.127Z,98494.63
2022-12-28T08:53:45.410Z,98492.72
2022-12-28T08:56:27.753Z,98476.53
2022-12-28T08:58:55.680Z,98481.59
2022-12-28T09:01:40.730Z,98492.63
2022-12-28T09:04:14.709Z,98488.69
2022-12-28T09:06:41.751Z,98492.53
2022-12-28T09:09:12.615Z,98500.50
2022-12-28T09:11:40.230Z,98499.47
2022-12-28T09:14:09.449Z,98490.84
2022-12-28T09:16:37.494Z,98496.50
2022-12-28T09:19:06.066Z,98492.78
2022-12-28T09:21:35.816Z,98491.94
2022-12-28T09:24:02.801Z,98487.56
2022-12-28T09:26:36.459Z,98482.84
2022-12-28T09:29:06.413Z,98469.44
2022-12-28T09:31:36.996Z,98468.53
2022-12-28T09:36:52.299Z,98466.09
2022-12-28T09:39:20.901Z,98471.94
2022-12-28T09:42:05.254Z,98465.28
2022-12-28T09:44:44.349Z,98457.75
2022-12-28T09:47:19.576Z,98472.63
2022-12-28T09:49:52.294Z,98479.06
2022-12-28T09:52:27.480Z,98464.91
2022-12-28T09:54:55.120Z,98469.91
2022-12-28T09:57:23.867Z,98466.41
2022-12-28T09:59:53.086Z,98464.81
2022-12-28T10:02:27.696Z,98454.72
2022-12-28T10:04:54.691Z,98445.88
2022-12-28T10:07:21.745Z,98445.66
2022-12-28T10:09:48.892Z,98445.44
2022-12-28T10:12:19.863Z,98436.56
2022-12-28T10:14:47.800Z,98437.56
2022-12-28T10:17:17.628Z,98430.53
2022-12-28T10:19:46.715Z,98427.00
2022-12-28T10:22:22.605Z,98426.91
2022-12-28T10:24:49.953Z,98429.56
2022-12-28T10:27:25.702Z,98432.59
2022-12-28T10:29:53.686Z,98434.22
2022-12-28T10:32:20.762Z,98440.34
2022-12-28T10:34:58.671Z,98424.81
2022-12-28T10:37:28.970Z,98424.56
2022-12-28T10:39:59.993Z,98419.16
2022-12-28T10:42:40.356Z,98407.63
2022-12-28T10:45:20.366Z,98408.81
2022-12-28T10:47:50.904Z,98413.53
2022-12-28T10:50:42.273Z,98410.00
2022-12-28T10:53:26.831Z,98410.38
2022-12-28T10:56:17.420Z,98399.22
2022-12-28T10:58:46.594Z,98397.97
2022-12-28T11:01:13.562Z,98391.31
2022-12-28T11:03:57.107Z,98398.75
2022-12-28T11:06:50.677Z,98387.78
2022-12-28T11:09:22.673Z,98387.78
2022-12-28T11:11:52.588Z,98380.31
2022-12-28T11:14:31.605Z,98383.38
2022-12-28T11:16:58.428Z,98389.97
2022-12-28T11:19:26.052Z,98375.66
2022-12-28T11:21:53.617Z,98376.03
2022-12-28T11:24:25.718Z,98377.91
2022-12-28T11:26:52.692Z,98375.84
2022-12-28T11:29:19.783Z,98365.09
2022-12-28T11:31:58.368Z,98364.63
2022-12-28T11:34:27.869Z,98372.84
2022-12-28T11:36:56.625Z,98373.44
2022-12-28T11:39:26.316Z,98374.63
2022-12-28T11:42:19.508Z,98375.00
2022-12-28T11:44:40.840Z,98376.44
2022-12-28T11:47:16.356Z,98368.75
2022-12-28T11:49:45.281Z,98370.19
2022-12-28T11:52:17.875Z,98368.25
2022-12-28T11:54:50.680Z,98371.69
2022-12-28T11:57:40.201Z,98365.78
2022-12-28T12:00:25.998Z,98357.81
2022-12-28T12:03:01.291Z,98359.41
2022-12-28T12:05:39.991Z,98349.59
2022-12-28T12:08:12.592Z,98346.47
2022-12-28T12:10:41.800Z,98345.19
2022-12-28T12:13:23.808Z,98339.56
2022-12-28T12:15:52.325Z,98340.03
2022-12-28T12:18:22.885Z,98332.91
2022-12-28T12:20:54.863Z,98341.97
2022-12-28T12:23:40.566Z,98338.09
2022-12-28T12:26:19.102Z,98334.59
2022-12-28T12:28:48.594Z,98334.84
2022-12-28T12:31:37.494Z,98333.78
2022-12-28T12:34:22.164Z,98328.84
2022-12-28T12:36:59.336Z,98329.72
2022-12-28T12:39:45.758Z,98322.16
2022-12-28T12:42:43.108Z,98323.16
2022-12-28T12:45:24.844Z,98323.16
2022-12-28T12:48:07.068Z,98330.03
2022-12-28T12:50:58.675Z,98326.53
2022-12-28T12:53:48.662Z,98323.28
2022-12-28T12:57:00.262Z,98321.25
2022-12-28T12:59:26.979Z,98328.72
2022-12-28T13:02:11.669Z,98327.91
2022-12-28T13:04:42.226Z,98324.00
2022-12-28T13:07:26.153Z,98326.47
2022-12-28T13:09:56.525Z,98328.56
2022-12-28T13:12:24.253Z,98316.06
2022-12-28T13:14:58.221Z,98327.00
2022-12-28T13:17:26.341Z,98319.38
2022-12-28T13:20:08.891Z,98321.88
2022-12-28T13:22:35.666Z,98320.81
2022-12-28T13:25:02.282Z,98318.56
2022-12-28T13:27:36.168Z,98316.34
2022-12-28T13:30:04.420Z,98321.94
2022-12-28T13:32:38.343Z,98317.81
2022-12-28T13:35:17.754Z,98315.38
2022-12-28T13:38:02.903Z,98314.41
2022-12-28T13:40:31.935Z,98313.75
2022-12-28T13:43:29.674Z,98312.09
2022-12-28T13:46:07.975Z,98311.25
2022-12-28T13:48:40.373Z,98317.06
2022-12-28T13:51:14.283Z,98321.25
2022-12-28T13:53:44.593Z,98322.75
2022-12-28T13:56:14.646Z,98319.53
2022-12-28T13:59:04.675Z,98324.97
2022-12-28T14:01:36.676Z,98319.91
2022-12-28T14:04:50.437Z,98323.44
2022-12-28T14:06:57.200Z,98318.81
2022-12-28T14:09:24.342Z,98319.91
2022-12-28T14:11:51.489Z,98314.44
2022-12-28T14:14:18.660Z,98316.75
2022-12-28T14:16:45.965Z,98326.91
2022-12-28T14:19:13.081Z,98326.59
2022-12-28T14:21:42.985Z,98332.19
2022-12-28T14:24:15.540Z,98309.66
2022-12-28T14:27:00.379Z,98320.38
2022-12-28T14:29:34.835Z,98313.19
2022-12-28T14:32:04.771Z,98309.91
2022-12-28T14:34:35.130Z,98315.47
2022-12-28T14:37:02.307Z,98298.06
2022-12-28T14:39:34.983Z,98318.59
2022-12-28T14:42:04.443Z,98314.13
2022-12-28T14:44:34.077Z,98311.91
2022-12-28T14:47:00.821Z,98314.59
2022-12-28T14:49:30.366Z,98315.47
2022-12-28T14:52:16.866Z,98315.50
2022-12-28T14:54:45.397Z,98314.09
2022-12-28T14:57:22.587Z,98317.81
2022-12-28T14:59:58.408Z,98320.13
2022-12-28T15:02:34.228Z,98323.66
2022-12-28T15:05:01.956Z,98329.66
2022-12-28T15:07:31.548Z,98325.75
2022-12-28T15:09:58.354Z,98321.88
2022-12-28T15:12:25.064Z,98318.78
2022-12-28T15:14:51.762Z,98320.84
2022-12-28T15:17:18.894Z,98322.09
2022-12-28T15:19:46.274Z,98315.72
2022-12-28T15:22:13.419Z,98305.66
2022-12-28T15:24:41.851Z,98319.41
2022-12-28T15:27:08.657Z,98318.56
2022-12-28T15:32:22.286Z,98315.28
2022-12-28T15:34:49.041Z,98310.75
2022-12-28T15:37:15.701Z,98309.72
2022-12-28T15:39:42.301Z,98310.50
2022-12-28T15:42:10.663Z,98305.56
2022-12-28T15:44:37.505Z,98307.81
2022-12-28T15:47:04.369Z,98296.09
2022-12-28T15:49:31.007Z,98287.66
2022-12-28T15:51:57.691Z,98308.22
2022-12-28T15:54:24.756Z,98304.72
2022-12-28T15:56:53.721Z,98314.34
2022-12-28T15:59:20.841Z,98298.72
2022-12-28T16:01:48.306Z,98301.75
2022-12-28T16:04:15.521Z,98288.59
2022-12-28T16:06:44.934Z,98300.06
2022-12-28T16:09:13.101Z,98295.97
2022-12-28T16:11:40.585Z,98272.75
2022-12-28T16:14:09.094Z,98246.84
2022-12-28T16:16:38.708Z,98285.88
2022-12-28T16:19:07.208Z,98296.94
2022-12-28T16:21:34.687Z,98267.53
2022-12-28T16:24:01.324Z,98279.69
2022-12-28T16:26:28.454Z,98287.88
2022-12-28T16:28:55.652Z,98296.91
2022-12-28T16:31:36.850Z,98299.91
2022-12-28T16:34:15.649Z,98288.38
2022-12-28T16:36:45.755Z,98312.19
2022-12-28T16:39:15.221Z,98305.84
2022-12-28T16:41:42.236Z,98303.38
2022-12-28T16:44:18.388Z,98298.19
2022-12-28T16:46:45.442Z,98272.47
2022-12-28T16:49:12.397Z,98304.16
2022-12-28T16:51:44.278Z,98297.13
2022-12-28T16:54:22.203Z,98297.13
2022-12-28T16:56:50.000Z,98294.66
2022-12-28T16:59:21.933Z,98292.41
2022-12-28T17:01:48.917Z,98299.09
2022-12-28T17:04:15.926Z,98296.66
2022-12-28T17:06:43.614Z,98294.19
2022-12-28T17:09:10.543Z,98283.50
2022-12-28T17:11:37.384Z,98274.41
2022-12-28T17:14:06.978Z,98298.38
2022-12-28T17:16:34.469Z,98281.53
2022-12-28T17:19:01.787Z,98278.06
2022-12-28T17:21:30.580Z,98282.94
2022-12-28T17:23:57.769Z,98291.13
2022-12-28T17:26:25.135Z,98292.34
2022-12-28T17:28:51.896Z,98275.88
2022-12-28T17:31:22.439Z,98296.16
2022-12-28T17:33:54.191Z,98292.44
2022-12-28T17:36:21.708Z,98292.63
2022-12-28T17:38:48.501Z,98306.13
2022-12-28T17:41:21.937Z,98296.25
2022-12-28T17:43:59.941Z,98304.41
2022-12-28T17:46:29.619Z,98314.25
2022-12-28T17:48:58.291Z,98309.28
2022-12-28T17:51:26.723Z,98306.00
2022-12-28T17:53:55.226Z,98303.72
2022-12-28T17:56:21.955Z,98294.59
2022-12-28T17:58:49.590Z,98289.91
2022-12-28T18:01:16.430Z,98301.19
2022-12-28T18:03:43.269Z,98296.44
2022-12-28T18:06:10.230Z,98282.22
2022-12-28T18:08:36.865Z,98290.03
2022-12-28T18:11:03.838Z,98291.44
2022-12-28T18:13:31.037Z,98292.63
2022-12-28T18:15:57.949Z,98280.06
2022-12-28T18:18:24.716Z,98277.81
2022-12-28T18:21:03.618Z,98301.19
2022-12-28T18:23:31.285Z,98240.16
2022-12-28T18:26:08.824Z,98282.78
2022-12-28T18:28:36.475Z,98287.56
2022-12-28T18:31:04.505Z,98287.94
2022-12-28T18:33:32.400Z,98286.22
2022-12-28T18:36:01.643Z,98299.31
2022-12-28T18:38:28.385Z,98296.22
2022-12-28T18:40:57.227Z,98304.38
2022-12-28T18:43:24.546Z,98286.50
2022-12-28T18:45:56.016Z,98291.63
2022-12-28T18:48:24.539Z,98275.63
2022-12-28T18:51:00.586Z,98279.94
2022-12-28T18:53:28.497Z,98283.97
2022-12-28T18:56:03.524Z,98289.00
2022-12-28T18:58:32.941Z,98286.75
2022-12-28T19:01:06.413Z,98285.88
2022-12-28T19:03:33.881Z,98292.78
2022-12-28T19:06:04.244Z,98293.81
2022-12-28T19:08:37.164Z,98302.16
2022-12-28T19:11:04.573Z,98303.97
2022-12-28T19:13:37.471Z,98310.28
2022-12-28T19:16:06.282Z,98292.59
2022-12-28T19:18:33.166Z,98292.97
2022-12-28T19:21:32.920Z,98293.44
2022-12-28T19:24:03.594Z,98290.72
2022-12-28T19:26:31.993Z,98301.97
2022-12-28T19:28:59.217Z,98289.59
2022-12-28T19:31:26.040Z,98293.91
2022-12-28T19:33:52.731Z,98296.28
2022-12-28T19:36:19.351Z,98297.47
2022-12-28T19:38:46.511Z,98280.47
2022-12-28T19:41:14.934Z,98279.44
2022-12-28T19:43:43.008Z,98275.03
2022-12-28T19:46:15.737Z,98284.13
2022-12-28T19:48:43.208Z,98287.97
2022-12-28T19:51:11.611Z,98277.03
2022-12-28T19:53:38.571Z,98300.78
2022-12-28T19:56:13.077Z,98299.16
2022-12-28T19:58:40.397Z,98296.19
2022-12-28T20:01:09.534Z,98306.00
2022-12-28T20:03:36.503Z,98297.09
2022-12-28T20:06:18.411Z,98303.69
2022-12-28T20:08:46.659Z,98304.72
2022-12-28T20:11:13.468Z,98300.13
2022-12-28T20:13:41.152Z,98298.13
2022-12-28T20:16:09.372Z,98299.84
2022-12-28T20:18:36.383Z,98307.91
2022-12-28T20:21:21.834Z,98297.19
2022-12-28T20:23:50.089Z,98301.50
2022-12-28T20:26:18.082Z,98295.72
2022-12-28T20:28:45.104Z,98289.31
2022-12-28T20:31:13.921Z,98281.41
2022-12-28T20:33:41.962Z,98299.47
2022-12-28T20:36:14.849Z,98293.34
2022-12-28T20:38:42.197Z,98292.88
2022-12-28T20:41:31.876Z,98301.81
2022-12-28T20:43:59.826Z,98291.41
2022-12-28T20:46:27.167Z,98284.16
2022-12-28T20:48:54.299Z,98281.34
2022-12-28T20:51:21.557Z,98283.06
2022-12-28T20:53:48.235Z,98292.84
2022-12-28T20:56:14.819Z,98289.25
2022-12-28T20:58:41.552Z,98299.50
2022-12-28T21:01:11.191Z,98298.03
2022-12-28T21:03:38.559Z,98300.69
2022-12-28T21:06:05.845Z,98298.88
2022-12-28T21:08:33.194Z,98300.22
2022-12-28T21:11:00.377Z,98297.72
2022-12-28T21:13:27.919Z,98298.59
2022-12-28T21:15:54.664Z,98297.56
2022-12-28T21:18:22.039Z,98295.38
2022-12-28T21:20:51.247Z,98302.34
2022-12-28T21:23:18.193Z,98296.56
2022-12-28T21:25:45.247Z,98299.03
2022-12-28T21:28:12.239Z,98295.75
2022-12-28T21:30:39.060Z,98291.13
2022-12-28T21:33:05.880Z,98278.69
2022-12-28T21:35:34.700Z,98276.03
2022-12-28T21:38:02.246Z,98272.75
2022-12-28T21:40:28.985Z,98278.78
2022-12-28T21:42:55.808Z,98275.50
2022-12-28T21:45:22.483Z,98268.22
2022-12-28T21:47:49.207Z,98278.31
2022-12-28T21:50:15.995Z,98273.00
2022-12-28T21:52:42.643Z,98265.59
2022-12-28T21:55:28.132Z,98259.94
2022-12-28T21:57:54.885Z,98250.13
2022-12-28T22:00:40.695Z,98239.97
2022-12-28T22:03:26.280Z,98247.00
2022-12-28T22:06:05.080Z,98241.25
2022-12-28T22:08:51.817Z,98247.84
2022-12-28T22:11:37.932Z,98248.66
2022-12-28T22:14:06.120Z,98242.06
2022-12-28T22:16:34.461Z,98234.47
2022-12-28T22:19:03.331Z,98231.53
2022-12-28T22:21:30.878Z,98228.94
2022-12-28T22:23:57.584Z,98230.59
2022-12-28T22:26:24.421Z,98229.09
2022-12-28T22:28:51.155Z,98224.34
2022-12-28T22:31:17.803Z,98212.94
2022-12-28T22:33:44.510Z,98177.59
2022-12-28T22:36:15.637Z,98201.97
2022-12-28T22:38:42.303Z,98190.59
2022-12-28T22:41:09.267Z,98193.63
2022-12-28T22:43:37.204Z,98193.97
2022-12-28T22:46:11.921Z,98207.84
2022-12-28T22:48:38.888Z,98196.97
2022-12-28T22:51:07.959Z,98207.91
2022-12-28T22:53:36.489Z,98199.84
2022-12-28T22:56:07.089Z,98206.81
2022-12-28T22:58:34.269Z,98197.38
2022-12-28T23:01:15.710Z,98197.38
2022-12-28T23:03:44.591Z,98210.97
2022-12-28T23:06:12.990Z,98208.06
2022-12-28T23:08:39.689Z,98211.53
2022-12-28T23:11:30.445Z,98216.97
2022-12-28T23:14:21.009Z,98223.63
2022-12-28T23:16:48.620Z,98219.69
2022-12-28T23:19:34.263Z,98205.47
2022-12-28T23:22:21.713Z,98215.56
2022-12-28T23:25:06.684Z,98200.19
2022-12-28T23:27:36.841Z,98188.34
2022-12-28T23:30:06.344Z,98197.59
2022-12-28T23:32:33.100Z,98207.50
2022-12-28T23:34:59.819Z,98216.44
2022-12-28T23:37:26.807Z,98201.41
2022-12-28T23:39:53.424Z,98208.72
2022-12-28T23:42:20.052Z,98214.84
2022-12-28T23:44:48.168Z,98200.16
2022-12-28T23:47:16.785Z,98201.47
2022-12-28T23:49:43.882Z,98199.63
2022-12-28T23:52:11.059Z,98193.72
2022-12-28T23:54:38.118Z,98187.94
2022-12-28T23:57:05.350Z,98192.03
2022-12-28T23:59:32.155Z,98201.16
